sensor_id;sensor_type;location;lat;lon;timestamp;P1;durP1;ratioP1;P2;durP2;ratioP2
67762;SDS011;54566;52.022;5.582;2023-05-10T00:00:16;60.78;;;29.75;;
67762;SDS011;54566;52.022;5.582;2023-05-10T00:02:42;59.00;;;29.42;;
67762;SDS011;54566;52.022;5.582;2023-05-10T00:05:09;63.72;;;30.23;;
67762;SDS011;54566;52.022;5.582;2023-05-10T00:07:35;64.00;;;31.17;;
67762;SDS011;54566;52.022;5.582;2023-05-10T00:10:03;66.75;;;30.90;;
67762;SDS011;54566;52.022;5.582;2023-05-10T00:14:55;69.35;;;30.70;;
67762;SDS011;54566;52.022;5.582;2023-05-10T00:17:24;71.50;;;33.30;;
67762;SDS011;54566;52.022;5.582;2023-05-10T00:19:50;77.78;;;34.15;;
67762;SDS011;54566;52.022;5.582;2023-05-10T00:22:16;72.00;;;32.92;;
67762;SDS011;54566;52.022;5.582;2023-05-10T00:24:42;72.10;;;34.13;;
67762;SDS011;54566;52.022;5.582;2023-05-10T00:27:08;72.38;;;33.67;;
67762;SDS011;54566;52.022;5.582;2023-05-10T00:29:34;67.28;;;32.58;;
67762;SDS011;54566;52.022;5.582;2023-05-10T00:32:00;83.65;;;36.72;;
67762;SDS011;54566;52.022;5.582;2023-05-10T00:34:26;79.35;;;36.53;;
67762;SDS011;54566;52.022;5.582;2023-05-10T00:36:53;86.15;;;37.30;;
67762;SDS011;54566;52.022;5.582;2023-05-10T00:39:19;84.13;;;37.72;;
67762;SDS011;54566;52.022;5.582;2023-05-10T00:41:46;88.43;;;39.40;;
67762;SDS011;54566;52.022;5.582;2023-05-10T00:44:12;83.50;;;37.30;;
67762;SDS011;54566;52.022;5.582;2023-05-10T00:46:38;87.03;;;36.45;;
67762;SDS011;54566;52.022;5.582;2023-05-10T00:49:04;90.22;;;37.00;;
67762;SDS011;54566;52.022;5.582;2023-05-10T00:51:30;86.95;;;36.13;;
67762;SDS011;54566;52.022;5.582;2023-05-10T00:53:56;86.68;;;36.10;;
67762;SDS011;54566;52.022;5.582;2023-05-10T00:56:22;79.68;;;34.35;;
67762;SDS011;54566;52.022;5.582;2023-05-10T00:58:49;80.68;;;34.40;;
67762;SDS011;54566;52.022;5.582;2023-05-10T01:01:15;73.82;;;32.65;;
67762;SDS011;54566;52.022;5.582;2023-05-10T01:03:42;81.75;;;34.80;;
67762;SDS011;54566;52.022;5.582;2023-05-10T01:06:08;77.75;;;33.65;;
67762;SDS011;54566;52.022;5.582;2023-05-10T01:08:35;78.10;;;33.67;;
67762;SDS011;54566;52.022;5.582;2023-05-10T01:11:01;87.97;;;35.20;;
67762;SDS011;54566;52.022;5.582;2023-05-10T01:13:33;77.88;;;34.35;;
67762;SDS011;54566;52.022;5.582;2023-05-10T01:16:01;84.38;;;33.90;;
67762;SDS011;54566;52.022;5.582;2023-05-10T01:18:28;81.30;;;33.80;;
67762;SDS011;54566;52.022;5.582;2023-05-10T01:21:01;79.60;;;32.83;;
67762;SDS011;54566;52.022;5.582;2023-05-10T01:23:44;65.40;;;29.90;;
67762;SDS011;54566;52.022;5.582;2023-05-10T01:36:23;80.10;;;32.47;;
67762;SDS011;54566;52.022;5.582;2023-05-10T01:38:58;76.05;;;31.95;;
67762;SDS011;54566;52.022;5.582;2023-05-10T01:41:36;88.05;;;33.75;;
67762;SDS011;54566;52.022;5.582;2023-05-10T01:44:21;81.13;;;33.53;;
67762;SDS011;54566;52.022;5.582;2023-05-10T01:46:52;80.57;;;32.22;;
67762;SDS011;54566;52.022;5.582;2023-05-10T01:49:23;78.25;;;31.80;;
67762;SDS011;54566;52.022;5.582;2023-05-10T01:51:51;82.32;;;33.15;;
67762;SDS011;54566;52.022;5.582;2023-05-10T01:54:19;87.78;;;33.58;;
67762;SDS011;54566;52.022;5.582;2023-05-10T01:56:47;79.18;;;32.80;;
67762;SDS011;54566;52.022;5.582;2023-05-10T01:59:15;82.40;;;32.78;;
67762;SDS011;54566;52.022;5.582;2023-05-10T02:01:43;79.95;;;32.45;;
67762;SDS011;54566;52.022;5.582;2023-05-10T02:04:10;84.93;;;33.45;;
67762;SDS011;54566;52.022;5.582;2023-05-10T02:06:36;84.82;;;33.95;;
67762;SDS011;54566;52.022;5.582;2023-05-10T02:09:03;84.85;;;33.72;;
67762;SDS011;54566;52.022;5.582;2023-05-10T02:11:30;83.55;;;33.17;;
67762;SDS011;54566;52.022;5.582;2023-05-10T02:13:57;79.15;;;32.47;;
67762;SDS011;54566;52.022;5.582;2023-05-10T02:16:24;82.97;;;33.72;;
67762;SDS011;54566;52.022;5.582;2023-05-10T02:18:53;87.57;;;34.13;;
67762;SDS011;54566;52.022;5.582;2023-05-10T02:21:20;85.40;;;34.25;;
67762;SDS011;54566;52.022;5.582;2023-05-10T02:23:47;78.82;;;32.90;;
67762;SDS011;54566;52.022;5.582;2023-05-10T02:26:14;90.63;;;35.33;;
67762;SDS011;54566;52.022;5.582;2023-05-10T02:28:42;88.78;;;35.97;;
67762;SDS011;54566;52.022;5.582;2023-05-10T02:31:08;85.50;;;35.33;;
67762;SDS011;54566;52.022;5.582;2023-05-10T02:33:37;84.80;;;33.42;;
67762;SDS011;54566;52.022;5.582;2023-05-10T02:36:07;84.53;;;34.35;;
67762;SDS011;54566;52.022;5.582;2023-05-10T02:40:59;83.47;;;34.20;;
67762;SDS011;54566;52.022;5.582;2023-05-10T02:43:25;91.65;;;36.53;;
67762;SDS011;54566;52.022;5.582;2023-05-10T02:45:54;89.10;;;36.45;;
67762;SDS011;54566;52.022;5.582;2023-05-10T02:50:46;92.82;;;37.60;;
67762;SDS011;54566;52.022;5.582;2023-05-10T02:53:18;91.97;;;36.67;;
67762;SDS011;54566;52.022;5.582;2023-05-10T02:55:45;87.55;;;37.25;;
67762;SDS011;54566;52.022;5.582;2023-05-10T02:58:15;77.90;;;35.40;;
67762;SDS011;54566;52.022;5.582;2023-05-10T03:00:43;79.63;;;34.50;;
67762;SDS011;54566;52.022;5.582;2023-05-10T03:03:11;88.15;;;36.78;;
67762;SDS011;54566;52.022;5.582;2023-05-10T03:05:37;94.85;;;38.45;;
67762;SDS011;54566;52.022;5.582;2023-05-10T03:08:03;92.57;;;38.38;;
67762;SDS011;54566;52.022;5.582;2023-05-10T03:10:30;82.65;;;36.72;;
67762;SDS011;54566;52.022;5.582;2023-05-10T03:13:14;97.15;;;38.55;;
67762;SDS011;54566;52.022;5.582;2023-05-10T03:18:18;87.68;;;37.08;;
67762;SDS011;54566;52.022;5.582;2023-05-10T03:20:47;82.55;;;36.78;;
67762;SDS011;54566;52.022;5.582;2023-05-10T03:23:20;87.03;;;36.28;;
67762;SDS011;54566;52.022;5.582;2023-05-10T03:25:47;87.65;;;37.22;;
67762;SDS011;54566;52.022;5.582;2023-05-10T03:28:15;94.28;;;37.67;;
67762;SDS011;54566;52.022;5.582;2023-05-10T03:30:42;97.38;;;38.17;;
67762;SDS011;54566;52.022;5.582;2023-05-10T03:33:08;90.07;;;37.42;;
67762;SDS011;54566;52.022;5.582;2023-05-10T03:35:35;92.07;;;38.95;;
67762;SDS011;54566;52.022;5.582;2023-05-10T03:38:01;84.15;;;36.42;;
67762;SDS011;54566;52.022;5.582;2023-05-10T03:40:27;87.05;;;35.70;;
67762;SDS011;54566;52.022;5.582;2023-05-10T03:45:22;83.82;;;34.05;;
67762;SDS011;54566;52.022;5.582;2023-05-10T03:47:48;89.53;;;36.70;;
67762;SDS011;54566;52.022;5.582;2023-05-10T03:50:14;98.10;;;38.20;;
67762;SDS011;54566;52.022;5.582;2023-05-10T03:52:43;99.22;;;38.72;;
67762;SDS011;54566;52.022;5.582;2023-05-10T03:55:09;96.07;;;38.38;;
67762;SDS011;54566;52.022;5.582;2023-05-10T03:57:35;104.30;;;38.58;;
67762;SDS011;54566;52.022;5.582;2023-05-10T04:00:02;101.07;;;40.00;;
67762;SDS011;54566;52.022;5.582;2023-05-10T04:02:28;108.18;;;40.22;;
67762;SDS011;54566;52.022;5.582;2023-05-10T04:04:55;101.72;;;37.60;;
67762;SDS011;54566;52.022;5.582;2023-05-10T04:07:21;96.63;;;36.42;;
67762;SDS011;54566;52.022;5.582;2023-05-10T04:09:47;112.45;;;38.17;;
67762;SDS011;54566;52.022;5.582;2023-05-10T04:12:13;98.22;;;37.00;;
67762;SDS011;54566;52.022;5.582;2023-05-10T04:14:39;95.38;;;35.30;;
67762;SDS011;54566;52.022;5.582;2023-05-10T04:17:05;97.90;;;35.78;;
67762;SDS011;54566;52.022;5.582;2023-05-10T04:19:34;97.53;;;35.85;;
67762;SDS011;54566;52.022;5.582;2023-05-10T04:22:02;80.03;;;31.98;;
67762;SDS011;54566;52.022;5.582;2023-05-10T04:24:28;89.03;;;33.30;;
67762;SDS011;54566;52.022;5.582;2023-05-10T04:26:57;76.22;;;30.23;;
67762;SDS011;54566;52.022;5.582;2023-05-10T04:29:23;87.10;;;31.98;;
67762;SDS011;54566;52.022;5.582;2023-05-10T04:31:50;85.05;;;31.60;;
67762;SDS011;54566;52.022;5.582;2023-05-10T04:34:16;85.85;;;31.80;;
67762;SDS011;54566;52.022;5.582;2023-05-10T04:36:42;80.57;;;29.92;;
67762;SDS011;54566;52.022;5.582;2023-05-10T04:39:08;92.85;;;31.45;;
67762;SDS011;54566;52.022;5.582;2023-05-10T04:41:34;89.57;;;31.05;;
67762;SDS011;54566;52.022;5.582;2023-05-10T04:44:00;87.88;;;31.23;;
67762;SDS011;54566;52.022;5.582;2023-05-10T04:46:26;81.93;;;29.75;;
67762;SDS011;54566;52.022;5.582;2023-05-10T04:48:52;99.22;;;32.95;;
67762;SDS011;54566;52.022;5.582;2023-05-10T04:51:18;96.40;;;30.33;;
67762;SDS011;54566;52.022;5.582;2023-05-10T04:53:45;98.97;;;32.28;;
67762;SDS011;54566;52.022;5.582;2023-05-10T04:56:11;95.63;;;32.22;;
67762;SDS011;54566;52.022;5.582;2023-05-10T04:58:37;86.47;;;31.33;;
67762;SDS011;54566;52.022;5.582;2023-05-10T05:01:07;98.22;;;34.03;;
67762;SDS011;54566;52.022;5.582;2023-05-10T05:03:33;103.70;;;34.20;;
67762;SDS011;54566;52.022;5.582;2023-05-10T05:05:59;104.95;;;34.65;;
67762;SDS011;54566;52.022;5.582;2023-05-10T05:08:25;97.55;;;33.85;;
67762;SDS011;54566;52.022;5.582;2023-05-10T05:10:52;106.43;;;34.92;;
67762;SDS011;54566;52.022;5.582;2023-05-10T05:13:18;108.35;;;34.97;;
67762;SDS011;54566;52.022;5.582;2023-05-10T05:15:44;96.78;;;34.92;;
67762;SDS011;54566;52.022;5.582;2023-05-10T05:18:10;97.07;;;34.30;;
67762;SDS011;54566;52.022;5.582;2023-05-10T05:20:37;90.50;;;33.55;;
67762;SDS011;54566;52.022;5.582;2023-05-10T05:23:03;95.45;;;34.67;;
67762;SDS011;54566;52.022;5.582;2023-05-10T05:25:30;97.53;;;34.40;;
67762;SDS011;54566;52.022;5.582;2023-05-10T05:27:58;92.65;;;34.15;;
67762;SDS011;54566;52.022;5.582;2023-05-10T05:30:24;101.38;;;34.72;;
67762;SDS011;54566;52.022;5.582;2023-05-10T05:32:50;90.68;;;34.40;;
67762;SDS011;54566;52.022;5.582;2023-05-10T05:35:16;95.80;;;36.15;;
67762;SDS011;54566;52.022;5.582;2023-05-10T05:37:42;94.60;;;35.17;;
67762;SDS011;54566;52.022;5.582;2023-05-10T05:40:11;94.22;;;32.15;;
67762;SDS011;54566;52.022;5.582;2023-05-10T05:42:37;90.43;;;34.33;;
67762;SDS011;54566;52.022;5.582;2023-05-10T05:45:04;99.18;;;33.25;;
67762;SDS011;54566;52.022;5.582;2023-05-10T05:47:30;86.63;;;33.60;;
67762;SDS011;54566;52.022;5.582;2023-05-10T05:49:56;88.95;;;34.03;;
67762;SDS011;54566;52.022;5.582;2023-05-10T05:52:32;92.50;;;35.90;;
67762;SDS011;54566;52.022;5.582;2023-05-10T05:55:09;92.03;;;35.47;;
67762;SDS011;54566;52.022;5.582;2023-05-10T06:00:05;86.32;;;34.42;;
67762;SDS011;54566;52.022;5.582;2023-05-10T06:02:34;96.80;;;36.03;;
67762;SDS011;54566;52.022;5.582;2023-05-10T06:09:54;94.40;;;33.25;;
67762;SDS011;54566;52.022;5.582;2023-05-10T06:12:20;110.68;;;36.55;;
67762;SDS011;54566;52.022;5.582;2023-05-10T06:17:53;99.07;;;35.40;;
67762;SDS011;54566;52.022;5.582;2023-05-10T06:20:19;93.68;;;33.72;;
67762;SDS011;54566;52.022;5.582;2023-05-10T06:22:45;81.68;;;32.42;;
67762;SDS011;54566;52.022;5.582;2023-05-10T06:25:12;85.28;;;33.03;;
67762;SDS011;54566;52.022;5.582;2023-05-10T06:27:39;100.38;;;33.65;;
67762;SDS011;54566;52.022;5.582;2023-05-10T06:30:06;94.78;;;34.38;;
67762;SDS011;54566;52.022;5.582;2023-05-10T06:34:59;106.40;;;35.97;;
67762;SDS011;54566;52.022;5.582;2023-05-10T06:37:25;99.45;;;37.20;;
67762;SDS011;54566;52.022;5.582;2023-05-10T06:39:51;98.20;;;36.33;;
67762;SDS011;54566;52.022;5.582;2023-05-10T06:42:18;95.47;;;37.22;;
67762;SDS011;54566;52.022;5.582;2023-05-10T06:44:44;101.90;;;37.65;;
67762;SDS011;54566;52.022;5.582;2023-05-10T06:47:11;91.60;;;35.15;;
67762;SDS011;54566;52.022;5.582;2023-05-10T06:49:37;93.13;;;36.00;;
67762;SDS011;54566;52.022;5.582;2023-05-10T06:52:03;100.85;;;37.33;;
67762;SDS011;54566;52.022;5.582;2023-05-10T06:54:29;106.38;;;37.63;;
67762;SDS011;54566;52.022;5.582;2023-05-10T06:56:55;103.80;;;37.45;;
67762;SDS011;54566;52.022;5.582;2023-05-10T06:59:21;103.00;;;37.42;;
67762;SDS011;54566;52.022;5.582;2023-05-10T07:01:47;102.65;;;38.63;;
67762;SDS011;54566;52.022;5.582;2023-05-10T07:04:14;95.13;;;38.65;;
67762;SDS011;54566;52.022;5.582;2023-05-10T07:06:40;107.13;;;37.65;;
67762;SDS011;54566;52.022;5.582;2023-05-10T07:09:06;103.72;;;38.10;;
67762;SDS011;54566;52.022;5.582;2023-05-10T07:11:32;98.97;;;37.75;;
67762;SDS011;54566;52.022;5.582;2023-05-10T07:13:58;96.50;;;36.50;;
67762;SDS011;54566;52.022;5.582;2023-05-10T07:16:25;97.32;;;37.35;;
67762;SDS011;54566;52.022;5.582;2023-05-10T07:18:51;81.38;;;34.85;;
67762;SDS011;54566;52.022;5.582;2023-05-10T07:21:18;79.55;;;34.55;;
67762;SDS011;54566;52.022;5.582;2023-05-10T07:23:44;73.50;;;31.38;;
67762;SDS011;54566;52.022;5.582;2023-05-10T07:26:12;80.57;;;33.63;;
67762;SDS011;54566;52.022;5.582;2023-05-10T07:28:39;75.22;;;33.75;;
67762;SDS011;54566;52.022;5.582;2023-05-10T07:31:05;70.95;;;31.98;;
67762;SDS011;54566;52.022;5.582;2023-05-10T07:33:32;64.45;;;30.75;;
67762;SDS011;54566;52.022;5.582;2023-05-10T07:35:58;65.47;;;29.25;;
67762;SDS011;54566;52.022;5.582;2023-05-10T07:38:24;56.47;;;27.45;;
67762;SDS011;54566;52.022;5.582;2023-05-10T07:40:50;60.50;;;26.92;;
67762;SDS011;54566;52.022;5.582;2023-05-10T07:43:16;57.95;;;25.73;;
67762;SDS011;54566;52.022;5.582;2023-05-10T07:45:44;51.53;;;25.58;;
67762;SDS011;54566;52.022;5.582;2023-05-10T07:50:36;40.17;;;19.95;;
67762;SDS011;54566;52.022;5.582;2023-05-10T07:53:05;38.35;;;18.20;;
67762;SDS011;54566;52.022;5.582;2023-05-10T07:55:34;32.80;;;17.80;;
67762;SDS011;54566;52.022;5.582;2023-05-10T07:58:01;31.10;;;16.25;;
67762;SDS011;54566;52.022;5.582;2023-05-10T08:00:28;31.13;;;13.85;;
67762;SDS011;54566;52.022;5.582;2023-05-10T08:02:54;29.88;;;15.25;;
67762;SDS011;54566;52.022;5.582;2023-05-10T08:05:27;25.40;;;13.43;;
67762;SDS011;54566;52.022;5.582;2023-05-10T08:07:58;21.20;;;11.20;;
67762;SDS011;54566;52.022;5.582;2023-05-10T08:10:32;25.08;;;12.38;;
67762;SDS011;54566;52.022;5.582;2023-05-10T08:12:58;25.58;;;11.88;;
67762;SDS011;54566;52.022;5.582;2023-05-10T08:15:24;25.08;;;10.32;;
67762;SDS011;54566;52.022;5.582;2023-05-10T08:17:56;14.52;;;9.02;;
67762;SDS011;54566;52.022;5.582;2023-05-10T08:20:25;17.65;;;9.98;;
67762;SDS011;54566;52.022;5.582;2023-05-10T08:22:51;18.88;;;10.70;;
67762;SDS011;54566;52.022;5.582;2023-05-10T08:25:17;16.52;;;10.25;;
67762;SDS011;54566;52.022;5.582;2023-05-10T08:27:45;18.92;;;11.10;;
67762;SDS011;54566;52.022;5.582;2023-05-10T08:32:38;21.58;;;11.30;;
67762;SDS011;54566;52.022;5.582;2023-05-10T08:35:04;22.63;;;11.18;;
67762;SDS011;54566;52.022;5.582;2023-05-10T08:37:30;22.60;;;11.20;;
67762;SDS011;54566;52.022;5.582;2023-05-10T08:39:57;19.00;;;10.90;;
67762;SDS011;54566;52.022;5.582;2023-05-10T08:42:23;16.73;;;11.43;;
67762;SDS011;54566;52.022;5.582;2023-05-10T08:44:54;17.92;;;10.80;;
67762;SDS011;54566;52.022;5.582;2023-05-10T08:47:20;16.02;;;10.40;;
67762;SDS011;54566;52.022;5.582;2023-05-10T08:49:49;16.75;;;9.50;;
67762;SDS011;54566;52.022;5.582;2023-05-10T08:55:03;21.67;;;11.38;;
67762;SDS011;54566;52.022;5.582;2023-05-10T08:57:32;20.48;;;11.65;;
67762;SDS011;54566;52.022;5.582;2023-05-10T09:00:01;17.98;;;10.80;;
67762;SDS011;54566;52.022;5.582;2023-05-10T09:02:27;21.77;;;11.25;;
67762;SDS011;54566;52.022;5.582;2023-05-10T09:04:53;20.27;;;11.75;;
67762;SDS011;54566;52.022;5.582;2023-05-10T09:07:19;20.45;;;11.82;;
67762;SDS011;54566;52.022;5.582;2023-05-10T09:09:45;20.52;;;11.60;;
67762;SDS011;54566;52.022;5.582;2023-05-10T09:12:12;19.33;;;11.07;;
67762;SDS011;54566;52.022;5.582;2023-05-10T09:14:40;19.55;;;10.30;;
67762;SDS011;54566;52.022;5.582;2023-05-10T09:17:10;18.48;;;10.23;;
67762;SDS011;54566;52.022;5.582;2023-05-10T09:19:36;18.00;;;9.43;;
67762;SDS011;54566;52.022;5.582;2023-05-10T09:22:02;17.83;;;9.98;;
67762;SDS011;54566;52.022;5.582;2023-05-10T09:24:31;18.27;;;9.77;;
67762;SDS011;54566;52.022;5.582;2023-05-10T09:27:10;15.20;;;8.65;;
67762;SDS011;54566;52.022;5.582;2023-05-10T09:29:42;16.00;;;8.70;;
67762;SDS011;54566;52.022;5.582;2023-05-10T09:32:08;14.10;;;8.50;;
67762;SDS011;54566;52.022;5.582;2023-05-10T09:34:34;16.90;;;9.27;;
67762;SDS011;54566;52.022;5.582;2023-05-10T09:37:04;15.30;;;9.13;;
67762;SDS011;54566;52.022;5.582;2023-05-10T09:39:35;18.23;;;9.45;;
67762;SDS011;54566;52.022;5.582;2023-05-10T09:42:05;15.07;;;9.77;;
67762;SDS011;54566;52.022;5.582;2023-05-10T09:44:41;18.83;;;10.00;;
67762;SDS011;54566;52.022;5.582;2023-05-10T09:47:11;18.70;;;10.70;;
67762;SDS011;54566;52.022;5.582;2023-05-10T09:49:44;16.27;;;9.75;;
67762;SDS011;54566;52.022;5.582;2023-05-10T09:52:13;16.70;;;10.68;;
67762;SDS011;54566;52.022;5.582;2023-05-10T09:54:42;17.15;;;10.07;;
67762;SDS011;54566;52.022;5.582;2023-05-10T10:00:16;21.90;;;10.98;;
67762;SDS011;54566;52.022;5.582;2023-05-10T10:02:53;20.80;;;10.60;;
67762;SDS011;54566;52.022;5.582;2023-05-10T10:05:21;15.25;;;10.13;;
67762;SDS011;54566;52.022;5.582;2023-05-10T10:07:53;13.18;;;9.20;;
67762;SDS011;54566;52.022;5.582;2023-05-10T10:10:19;13.20;;;7.95;;
67762;SDS011;54566;52.022;5.582;2023-05-10T10:15:28;11.70;;;7.80;;
67762;SDS011;54566;52.022;5.582;2023-05-10T10:18:00;16.17;;;8.13;;
67762;SDS011;54566;52.022;5.582;2023-05-10T10:20:30;13.63;;;7.50;;
67762;SDS011;54566;52.022;5.582;2023-05-10T10:23:08;13.45;;;7.70;;
67762;SDS011;54566;52.022;5.582;2023-05-10T10:25:38;13.82;;;7.88;;
67762;SDS011;54566;52.022;5.582;2023-05-10T10:28:08;12.60;;;8.07;;
67762;SDS011;54566;52.022;5.582;2023-05-10T10:30:47;13.27;;;8.63;;
67762;SDS011;54566;52.022;5.582;2023-05-10T10:49:31;9.95;;;6.93;;
67762;SDS011;54566;52.022;5.582;2023-05-10T10:55:39;11.45;;;7.22;;
67762;SDS011;54566;52.022;5.582;2023-05-10T11:04:55;10.73;;;6.82;;
67762;SDS011;54566;52.022;5.582;2023-05-10T11:07:25;11.27;;;6.65;;
67762;SDS011;54566;52.022;5.582;2023-05-10T11:09:52;13.90;;;7.03;;
67762;SDS011;54566;52.022;5.582;2023-05-10T11:12:18;12.57;;;6.55;;
67762;SDS011;54566;52.022;5.582;2023-05-10T11:14:49;10.13;;;6.32;;
67762;SDS011;54566;52.022;5.582;2023-05-10T11:17:22;14.63;;;6.45;;
67762;SDS011;54566;52.022;5.582;2023-05-10T11:26:29;10.15;;;6.18;;
67762;SDS011;54566;52.022;5.582;2023-05-10T11:29:22;11.77;;;6.85;;
67762;SDS011;54566;52.022;5.582;2023-05-10T11:32:14;12.70;;;6.22;;
67762;SDS011;54566;52.022;5.582;2023-05-10T11:35:07;10.75;;;6.40;;
67762;SDS011;54566;52.022;5.582;2023-05-10T11:37:42;10.95;;;7.10;;
67762;SDS011;54566;52.022;5.582;2023-05-10T11:40:38;12.07;;;6.05;;
67762;SDS011;54566;52.022;5.582;2023-05-10T11:49:21;10.95;;;5.90;;
67762;SDS011;54566;52.022;5.582;2023-05-10T11:51:53;14.45;;;6.38;;
67762;SDS011;54566;52.022;5.582;2023-05-10T11:54:31;14.27;;;6.28;;
67762;SDS011;54566;52.022;5.582;2023-05-10T12:05:45;16.80;;;6.65;;
67762;SDS011;54566;52.022;5.582;2023-05-10T12:08:12;8.23;;;5.68;;
67762;SDS011;54566;52.022;5.582;2023-05-10T12:10:38;8.98;;;5.40;;
67762;SDS011;54566;52.022;5.582;2023-05-10T12:13:12;11.05;;;5.93;;
67762;SDS011;54566;52.022;5.582;2023-05-10T12:15:39;7.15;;;5.30;;
67762;SDS011;54566;52.022;5.582;2023-05-10T12:18:11;9.18;;;5.40;;
67762;SDS011;54566;52.022;5.582;2023-05-10T12:20:37;10.60;;;5.30;;
67762;SDS011;54566;52.022;5.582;2023-05-10T12:23:03;12.02;;;5.47;;
67762;SDS011;54566;52.022;5.582;2023-05-10T12:25:33;9.68;;;5.25;;
67762;SDS011;54566;52.022;5.582;2023-05-10T12:31:16;10.95;;;5.10;;
67762;SDS011;54566;52.022;5.582;2023-05-10T12:33:43;7.60;;;4.15;;
67762;SDS011;54566;52.022;5.582;2023-05-10T12:38:49;5.13;;;3.47;;
67762;SDS011;54566;52.022;5.582;2023-05-10T12:44:14;7.43;;;4.35;;
67762;SDS011;54566;52.022;5.582;2023-05-10T12:46:40;9.05;;;4.95;;
67762;SDS011;54566;52.022;5.582;2023-05-10T12:49:40;8.60;;;4.97;;
67762;SDS011;54566;52.022;5.582;2023-05-10T12:52:06;7.35;;;4.70;;
67762;SDS011;54566;52.022;5.582;2023-05-10T13:16:18;13.50;;;8.73;;
67762;SDS011;54566;52.022;5.582;2023-05-10T13:18:44;13.05;;;9.00;;
67762;SDS011;54566;52.022;5.582;2023-05-10T13:21:10;14.75;;;9.80;;
67762;SDS011;54566;52.022;5.582;2023-05-10T13:23:36;13.00;;;9.55;;
67762;SDS011;54566;52.022;5.582;2023-05-10T13:26:02;9.95;;;7.80;;
67762;SDS011;54566;52.022;5.582;2023-05-10T13:28:29;9.85;;;7.15;;
67762;SDS011;54566;52.022;5.582;2023-05-10T13:30:55;8.35;;;4.93;;
67762;SDS011;54566;52.022;5.582;2023-05-10T13:33:21;7.65;;;4.30;;
67762;SDS011;54566;52.022;5.582;2023-05-10T13:35:47;7.57;;;5.13;;
67762;SDS011;54566;52.022;5.582;2023-05-10T13:38:13;5.95;;;4.50;;
67762;SDS011;54566;52.022;5.582;2023-05-10T13:40:39;9.63;;;4.72;;
67762;SDS011;54566;52.022;5.582;2023-05-10T13:43:05;8.25;;;4.50;;
67762;SDS011;54566;52.022;5.582;2023-05-10T13:45:31;9.05;;;5.03;;
67762;SDS011;54566;52.022;5.582;2023-05-10T13:47:58;9.82;;;5.78;;
67762;SDS011;54566;52.022;5.582;2023-05-10T13:50:24;17.75;;;5.88;;
67762;SDS011;54566;52.022;5.582;2023-05-10T13:52:49;10.20;;;5.90;;
67762;SDS011;54566;52.022;5.582;2023-05-10T13:55:15;7.40;;;5.78;;
67762;SDS011;54566;52.022;5.582;2023-05-10T13:57:41;11.43;;;6.90;;
67762;SDS011;54566;52.022;5.582;2023-05-10T14:00:08;10.02;;;6.43;;
67762;SDS011;54566;52.022;5.582;2023-05-10T14:02:34;8.88;;;6.30;;
67762;SDS011;54566;52.022;5.582;2023-05-10T14:05:00;9.48;;;5.78;;
67762;SDS011;54566;52.022;5.582;2023-05-10T14:07:26;14.40;;;5.32;;
67762;SDS011;54566;52.022;5.582;2023-05-10T14:09:52;10.93;;;6.00;;
67762;SDS011;54566;52.022;5.582;2023-05-10T14:12:18;13.18;;;6.05;;
67762;SDS011;54566;52.022;5.582;2023-05-10T14:14:44;10.68;;;6.13;;
67762;SDS011;54566;52.022;5.582;2023-05-10T14:17:10;10.48;;;5.60;;
67762;SDS011;54566;52.022;5.582;2023-05-10T14:19:36;9.15;;;5.65;;
67762;SDS011;54566;52.022;5.582;2023-05-10T14:22:03;7.28;;;5.13;;
67762;SDS011;54566;52.022;5.582;2023-05-10T14:24:29;8.35;;;5.50;;
67762;SDS011;54566;52.022;5.582;2023-05-10T14:26:55;8.60;;;5.30;;
67762;SDS011;54566;52.022;5.582;2023-05-10T14:29:22;10.63;;;6.03;;
67762;SDS011;54566;52.022;5.582;2023-05-10T14:31:48;8.40;;;5.93;;
67762;SDS011;54566;52.022;5.582;2023-05-10T14:34:14;10.98;;;5.90;;
67762;SDS011;54566;52.022;5.582;2023-05-10T14:36:40;10.90;;;6.00;;
67762;SDS011;54566;52.022;5.582;2023-05-10T14:39:06;12.75;;;6.30;;
67762;SDS011;54566;52.022;5.582;2023-05-10T14:41:32;11.95;;;6.35;;
67762;SDS011;54566;52.022;5.582;2023-05-10T14:43:59;14.38;;;6.55;;
67762;SDS011;54566;52.022;5.582;2023-05-10T14:46:25;13.23;;;6.57;;
67762;SDS011;54566;52.022;5.582;2023-05-10T14:48:53;11.93;;;7.30;;
67762;SDS011;54566;52.022;5.582;2023-05-10T14:51:19;15.63;;;7.03;;
67762;SDS011;54566;52.022;5.582;2023-05-10T14:53:46;16.77;;;8.23;;
67762;SDS011;54566;52.022;5.582;2023-05-10T14:56:13;15.38;;;8.50;;
67762;SDS011;54566;52.022;5.582;2023-05-10T14:58:39;15.40;;;8.10;;
67762;SDS011;54566;52.022;5.582;2023-05-10T15:01:05;18.95;;;9.32;;
67762;SDS011;54566;52.022;5.582;2023-05-10T15:03:31;16.73;;;9.93;;
67762;SDS011;54566;52.022;5.582;2023-05-10T15:05:57;17.35;;;9.93;;
67762;SDS011;54566;52.022;5.582;2023-05-10T15:08:23;18.65;;;9.82;;
67762;SDS011;54566;52.022;5.582;2023-05-10T15:10:52;23.13;;;8.93;;
67762;SDS011;54566;52.022;5.582;2023-05-10T15:13:20;20.67;;;10.85;;
67762;SDS011;54566;52.022;5.582;2023-05-10T15:15:46;17.27;;;9.45;;
67762;SDS011;54566;52.022;5.582;2023-05-10T15:18:12;20.42;;;9.93;;
67762;SDS011;54566;52.022;5.582;2023-05-10T15:20:38;15.95;;;9.75;;
67762;SDS011;54566;52.022;5.582;2023-05-10T15:23:04;20.70;;;9.90;;
67762;SDS011;54566;52.022;5.582;2023-05-10T15:25:30;17.80;;;9.45;;
67762;SDS011;54566;52.022;5.582;2023-05-10T15:27:59;18.95;;;9.02;;
67762;SDS011;54566;52.022;5.582;2023-05-10T15:30:25;18.75;;;9.90;;
67762;SDS011;54566;52.022;5.582;2023-05-10T15:32:51;18.33;;;9.85;;
67762;SDS011;54566;52.022;5.582;2023-05-10T15:35:17;19.30;;;9.30;;
67762;SDS011;54566;52.022;5.582;2023-05-10T15:37:44;15.75;;;9.52;;
67762;SDS011;54566;52.022;5.582;2023-05-10T15:40:10;23.23;;;11.15;;
67762;SDS011;54566;52.022;5.582;2023-05-10T15:42:36;24.35;;;10.45;;
67762;SDS011;54566;52.022;5.582;2023-05-10T15:45:02;19.27;;;9.57;;
67762;SDS011;54566;52.022;5.582;2023-05-10T15:47:29;17.42;;;9.70;;
67762;SDS011;54566;52.022;5.582;2023-05-10T15:49:55;19.58;;;8.90;;
67762;SDS011;54566;52.022;5.582;2023-05-10T15:52:21;15.93;;;9.63;;
67762;SDS011;54566;52.022;5.582;2023-05-10T15:54:48;15.70;;;8.90;;
67762;SDS011;54566;52.022;5.582;2023-05-10T15:57:14;17.25;;;9.05;;
67762;SDS011;54566;52.022;5.582;2023-05-10T15:59:40;18.77;;;9.43;;
67762;SDS011;54566;52.022;5.582;2023-05-10T16:02:07;16.35;;;8.75;;
67762;SDS011;54566;52.022;5.582;2023-05-10T16:04:35;15.60;;;8.35;;
67762;SDS011;54566;52.022;5.582;2023-05-10T16:07:01;17.08;;;8.52;;
67762;SDS011;54566;52.022;5.582;2023-05-10T16:09:27;18.38;;;8.55;;
67762;SDS011;54566;52.022;5.582;2023-05-10T16:11:53;16.55;;;8.32;;
67762;SDS011;54566;52.022;5.582;2023-05-10T16:14:19;15.30;;;9.05;;
67762;SDS011;54566;52.022;5.582;2023-05-10T16:16:47;14.18;;;8.05;;
67762;SDS011;54566;52.022;5.582;2023-05-10T16:19:14;14.70;;;8.40;;
67762;SDS011;54566;52.022;5.582;2023-05-10T16:21:40;18.75;;;8.63;;
67762;SDS011;54566;52.022;5.582;2023-05-10T16:24:06;14.82;;;8.88;;
67762;SDS011;54566;52.022;5.582;2023-05-10T16:26:32;14.25;;;8.30;;
67762;SDS011;54566;52.022;5.582;2023-05-10T16:29:04;14.85;;;8.65;;
67762;SDS011;54566;52.022;5.582;2023-05-10T16:31:30;20.95;;;8.23;;
67762;SDS011;54566;52.022;5.582;2023-05-10T16:33:56;14.77;;;7.88;;
67762;SDS011;54566;52.022;5.582;2023-05-10T16:36:22;14.50;;;8.07;;